Time;durP1;ratioP1;P1;durP2;ratioP2;P2;SDS_P1;SDS_P2;PMS_P1;PMS_P2;Temp;Humidity;BMP_temperature;BMP_pressure;BME280_temperature;BME280_humidity;BME280_pressure;Samples;Min_cycle;Max_cycle;Signal;HPM_P1;HPM_P2
2021/07/31 00:01:30;;;;;;;24.02;13.00;;;18.40;99.90;;;;;;4940499;29;20191;-90
2021/07/31 00:03:58;;;;;;;24.80;12.57;;;18.40;99.90;;;;;;4940454;29;20235;-91
2021/07/31 00:06:24;;;;;;;23.17;13.27;;;18.60;99.90;;;;;;4940608;29;20183;-91
2021/07/31 00:08:49;;;;;;;27.15;11.95;;;18.40;99.90;;;;;;4940002;29;20179;-90
2021/07/31 00:11:15;;;;;;;27.83;12.75;;;18.30;99.90;;;;;;4924594;29;20641;-90
2021/07/31 00:13:41;;;;;;;20.83;11.73;;;;;;;;;;4939976;29;20190;-90
2021/07/31 00:16:07;;;;;;;27.67;12.20;;;18.40;99.90;;;;;;4940369;29;20179;-91
2021/07/31 00:18:32;;;;;;;21.55;12.65;;;18.20;99.90;;;;;;4940482;29;20274;-91
2021/07/31 00:20:58;;;;;;;20.45;12.02;;;18.90;99.90;;;;;;4939950;29;20183;-90
2021/07/31 00:23:27;;;;;;;20.40;12.23;;;18.20;99.90;;;;;;4940054;29;20282;-90
2021/07/31 00:25:56;;;;;;;21.67;12.02;;;18.20;99.90;;;;;;4939740;29;20183;-90
2021/07/31 00:28:25;;;;;;;18.98;11.60;;;18.20;99.90;;;;;;4940365;29;20194;-91
2021/07/31 00:30:52;;;;;;;21.92;12.65;;;18.20;99.90;;;;;;4923981;29;20297;-92
2021/07/31 00:33:17;;;;;;;21.45;12.23;;;18.10;99.90;;;;;;4939910;29;20234;-90
2021/07/31 00:35:44;;;;;;;23.33;12.25;;;;;;;;;;4939359;29;20187;-90
2021/07/31 00:38:09;;;;;;;18.88;11.40;;;18.10;99.90;;;;;;4939732;29;20218;-90
2021/07/31 00:40:35;;;;;;;17.20;11.38;;;18.10;99.90;;;;;;4956954;29;20190;-92
2021/07/31 00:43:05;;;;;;;23.77;11.95;;;18.00;99.90;;;;;;4939606;29;20190;-89
2021/07/31 00:45:31;;;;;;;21.52;11.45;;;17.70;99.90;;;;;;4939828;29;20183;-90
2021/07/31 00:47:57;;;;;;;20.85;12.02;;;;;;;;;;4907497;29;20242;-89
2021/07/31 00:50:23;;;;;;;21.15;12.07;;;17.90;99.90;;;;;;4939518;29;20248;-90
2021/07/31 00:52:49;;;;;;;25.95;12.02;;;18.00;99.90;;;;;;4939239;29;20277;-91
2021/07/31 00:55:16;;;;;;;20.98;11.73;;;;;;;;;;4956295;29;20614;-90
2021/07/31 00:57:45;;;;;;;14.75;10.25;;;17.80;99.90;;;;;;4938602;29;20624;-90
2021/07/31 01:00:12;;;;;;;23.65;11.65;;;17.80;99.90;;;;;;4939354;29;20629;-90
2021/07/31 01:02:38;;;;;;;19.58;11.80;;;17.80;99.90;;;;;;4939221;29;20195;-90
2021/07/31 01:05:04;;;;;;;24.42;11.32;;;20.40;99.90;;;;;;4938611;29;20235;-91
2021/07/31 01:07:31;;;;;;;18.23;10.73;;;17.40;99.90;;;;;;4938999;29;20187;-90
2021/07/31 01:09:57;;;;;;;16.63;11.40;;;17.90;99.90;;;;;;4938562;29;20211;-90
2021/07/31 01:12:23;;;;;;;17.95;11.80;;;17.70;99.90;;;;;;4939071;29;20179;-90
2021/07/31 01:14:49;;;;;;;24.15;11.15;;;;;;;;;;4938622;29;20193;-89
2021/07/31 01:17:15;;;;;;;24.20;11.43;;;17.70;99.90;;;;;;4938943;29;20535;-91
2021/07/31 01:19:41;;;;;;;18.00;11.65;;;;;;;;;;4938535;29;20172;-91
2021/07/31 01:22:07;;;;;;;18.80;11.02;;;17.70;99.90;;;;;;4956097;29;20176;-89
2021/07/31 01:24:33;;;;;;;15.05;10.27;;;17.60;99.90;;;;;;4938482;29;20179;-90
2021/07/31 01:27:01;;;;;;;16.67;11.00;;;17.60;99.90;;;;;;4938650;29;20258;-90
2021/07/31 01:29:27;;;;;;;17.50;11.02;;;17.60;99.90;;;;;;4938858;29;20238;-89
2021/07/31 01:31:52;;;;;;;19.05;11.20;;;17.50;99.90;;;;;;4938241;29;20245;-90
2021/07/31 01:34:18;;;;;;;19.88;10.52;;;;;;;;;;4923090;29;20283;-90
2021/07/31 01:36:44;;;;;;;20.73;11.02;;;17.50;99.90;;;;;;4954986;28;20179;-89
2021/07/31 01:39:10;;;;;;;20.80;10.80;;;17.40;99.90;;;;;;4938885;29;20183;-90
2021/07/31 01:41:36;;;;;;;16.73;10.70;;;;;;;;;;4939191;29;20180;-90
2021/07/31 01:44:02;;;;;;;18.92;10.60;;;17.40;99.90;;;;;;4938408;29;20191;-90
2021/07/31 01:46:28;;;;;;;19.20;11.68;;;;;;;;;;4938452;29;20186;-90
2021/07/31 01:48:54;;;;;;;17.90;11.35;;;17.30;99.90;;;;;;4938114;29;20191;-89
2021/07/31 01:51:19;;;;;;;21.23;11.05;;;17.20;99.90;;;;;;4955673;29;20207;-90
2021/07/31 01:53:46;;;;;;;19.00;10.45;;;;;;;;;;4954950;29;20198;-91
2021/07/31 01:56:12;;;;;;;18.70;10.77;;;17.10;99.90;;;;;;4938273;29;20628;-91
2021/07/31 01:58:37;;;;;;;18.63;10.45;;;17.00;99.90;;;;;;4922392;29;20210;-92
2021/07/31 02:01:03;;;;;;;16.17;10.10;;;;;;;;;;4955113;29;20237;-90
2021/07/31 02:03:29;;;;;;;19.77;11.07;;;16.90;99.90;;;;;;4940599;28;20617;-90
2021/07/31 02:05:56;;;;;;;22.95;10.32;;;17.00;99.90;;;;;;4941069;28;20269;-91
2021/07/31 02:08:22;;;;;;;15.35;10.43;;;16.90;99.90;;;;;;4941352;28;20179;-90
2021/07/31 02:10:47;;;;;;;21.85;10.27;;;17.00;99.90;;;;;;4956855;28;20254;-90
2021/07/31 02:13:13;;;;;;;17.30;10.40;;;17.50;99.90;;;;;;4974612;28;20178;-90
2021/07/31 02:15:43;;;;;;;14.73;10.13;;;16.90;99.90;;;;;;4957503;28;20174;-91
2021/07/31 02:18:10;;;;;;;18.20;10.30;;;17.10;99.90;;;;;;4955918;28;20639;-91
2021/07/31 02:20:36;;;;;;;19.00;10.05;;;16.80;99.90;;;;;;4956005;28;20179;-89
2021/07/31 02:23:02;;;;;;;18.30;11.07;;;17.10;99.90;;;;;;4956082;28;20706;-90
2021/07/31 02:25:28;;;;;;;16.17;10.75;;;17.10;99.90;;;;;;4973508;28;20174;-91
2021/07/31 02:27:54;;;;;;;20.95;9.98;;;17.00;99.90;;;;;;4940193;28;20241;-91
2021/07/31 02:30:20;;;;;;;16.13;9.95;;;17.00;99.90;;;;;;4955992;28;20214;-89
2021/07/31 02:32:46;;;;;;;16.00;10.32;;;16.80;99.90;;;;;;4955494;28;20186;-90
2021/07/31 02:35:12;;;;;;;19.45;9.75;;;16.70;99.90;;;;;;4955950;28;20186;-90
2021/07/31 02:37:38;;;;;;;17.60;9.68;;;16.60;99.90;;;;;;4955926;28;20237;-90
2021/07/31 02:40:05;;;;;;;14.45;10.00;;;16.60;99.90;;;;;;4955777;28;20175;-89
2021/07/31 02:42:31;;;;;;;14.20;9.45;;;;;;;;;;4956312;28;20710;-91
2021/07/31 02:44:59;;;;;;;20.67;10.73;;;16.60;99.90;;;;;;4955058;28;20170;-90
2021/07/31 02:47:25;;;;;;;15.93;9.88;;;16.60;99.90;;;;;;4956116;28;20665;-90
2021/07/31 02:49:51;;;;;;;16.85;9.40;;;;;;;;;;4977251;28;20174;-90
2021/07/31 02:52:16;;;;;;;17.55;9.93;;;16.70;99.90;;;;;;4978252;28;20632;-90
2021/07/31 02:54:43;;;;;;;17.02;9.35;;;;;;;;;;4944980;28;20229;-90
2021/07/31 02:57:08;;;;;;;17.50;9.27;;;16.70;99.90;;;;;;4960365;28;20252;-90
2021/07/31 02:59:34;;;;;;;15.10;9.25;;;17.00;99.90;;;;;;4960748;28;20182;-90
2021/07/31 03:02:00;;;;;;;21.90;9.93;;;16.60;99.90;;;;;;4944173;28;20183;-90
2021/07/31 03:04:26;;;;;;;21.95;9.40;;;16.60;99.90;;;;;;4941556;29;20234;-90
2021/07/31 03:06:52;;;;;;;16.30;10.20;;;;;;;;;;4957064;29;20183;-90
2021/07/31 03:09:17;;;;;;;15.43;9.88;;;16.60;99.90;;;;;;4957082;29;20228;-91
2021/07/31 03:11:43;;;;;;;18.17;10.27;;;17.10;99.90;;;;;;4941494;29;20253;-90
2021/07/31 03:14:09;;;;;;;21.33;10.13;;;16.70;99.90;;;;;;4925684;29;20278;-92
2021/07/31 03:16:35;;;;;;;12.98;9.38;;;16.70;99.90;;;;;;4957385;29;20262;-91
2021/07/31 03:19:01;;;;;;;17.23;9.82;;;;;;;;;;4957139;29;20179;-93
2021/07/31 03:21:27;;;;;;;15.02;9.93;;;16.70;99.90;;;;;;4957685;29;20209;-91
2021/07/31 03:23:52;;;;;;;15.90;9.98;;;16.70;99.90;;;;;;4941319;29;20193;-90
2021/07/31 03:26:18;;;;;;;16.98;9.70;;;;;;;;;;4941498;29;20635;-94
2021/07/31 03:28:44;;;;;;;15.63;9.75;;;16.90;99.90;;;;;;4957419;29;20180;-92
2021/07/31 03:31:18;;;;;;;15.68;9.65;;;17.10;99.90;;;;;;4956908;29;20229;-93
2021/07/31 03:33:44;;;;;;;15.98;10.38;;;17.60;99.90;;;;;;4959016;28;20175;-93
2021/07/31 03:36:10;;;;;;;14.50;8.80;;;;;;;;;;4940793;29;20522;-94
2021/07/31 03:38:35;;;;;;;13.23;9.40;;;17.00;99.90;;;;;;4942463;29;20235;-92
2021/07/31 03:41:01;;;;;;;16.50;10.40;;;17.10;99.90;;;;;;4942212;29;20183;-93
2021/07/31 03:43:27;;;;;;;15.60;10.07;;;;;;;;;;4941671;29;20188;-94
2021/07/31 03:45:53;;;;;;;16.33;9.77;;;17.00;99.90;;;;;;4957408;29;20179;-93
2021/07/31 03:48:18;;;;;;;14.30;8.63;;;17.30;99.90;;;;;;4941182;29;20191;-93
2021/07/31 03:50:45;;;;;;;20.02;9.32;;;;;;;;;;4958857;29;20643;-95
2021/07/31 03:53:10;;;;;;;16.23;9.57;;;17.30;99.90;;;;;;4956853;29;20330;-93
2021/07/31 03:55:36;;;;;;;17.58;9.57;;;17.20;99.90;;;;;;4957181;29;20262;-94
2021/07/31 03:58:03;;;;;;;16.55;9.25;;;17.40;99.90;;;;;;4958175;29;20206;-94
2021/07/31 04:00:28;;;;;;;17.00;9.05;;;17.30;99.90;;;;;;4957975;28;20640;-91
2021/07/31 04:02:55;;;;;;;15.13;8.65;;;;;;;;;;4940836;29;20274;-91
2021/07/31 04:05:20;;;;;;;13.63;9.50;;;17.60;99.90;;;;;;4942346;29;20231;-94
2021/07/31 04:07:46;;;;;;;15.52;9.48;;;;;;;;;;4957760;29;20263;-92
2021/07/31 04:10:12;;;;;;;13.90;9.15;;;;;;;;;;4940494;29;20665;-92
2021/07/31 04:12:38;;;;;;;16.40;9.27;;;18.00;99.90;;;;;;4958189;29;20191;-92
2021/07/31 04:15:05;;;;;;;13.23;8.77;;;18.10;99.90;;;;;;4940861;29;20187;-94
2021/07/31 04:17:30;;;;;;;16.08;9.05;;;18.20;99.90;;;;;;4940429;29;20234;-93
2021/07/31 04:19:56;;;;;;;17.17;10.15;;;18.20;99.90;;;;;;4958376;29;20179;-92
2021/07/31 04:22:22;;;;;;;19.08;9.38;;;;;;;;;;4940652;29;20175;-94
2021/07/31 04:24:48;;;;;;;13.10;9.00;;;18.40;99.90;;;;;;4943861;29;20191;-92
2021/07/31 04:27:14;;;;;;;18.67;8.85;;;;;;;;;;4943924;29;20182;-92
2021/07/31 04:29:40;;;;;;;15.20;9.23;;;18.50;99.90;;;;;;4942315;29;20187;-93
2021/07/31 04:32:06;;;;;;;14.07;8.07;;;18.70;99.90;;;;;;4941979;29;20207;-93
2021/07/31 04:34:32;;;;;;;13.95;8.50;;;;;;;;;;4957531;29;20202;-92
2021/07/31 04:36:58;;;;;;;16.20;8.93;;;18.80;99.90;;;;;;4940259;29;20187;-92
2021/07/31 04:39:24;;;;;;;13.40;8.80;;;;;;;;;;4923811;29;20198;-92
2021/07/31 04:41:50;;;;;;;11.68;8.85;;;19.10;99.90;;;;;;4939962;29;20183;-91
2021/07/31 04:44:16;;;;;;;17.13;8.93;;;;;;;;;;4939680;29;20184;-93
2021/07/31 04:46:42;;;;;;;18.95;9.13;;;19.30;99.90;;;;;;4940574;29;20579;-92
2021/07/31 04:49:08;;;;;;;14.48;8.45;;;20.90;99.90;;;;;;4937781;29;20209;-92
2021/07/31 04:51:33;;;;;;;17.10;9.82;;;19.60;99.90;;;;;;4956508;29;20210;-91
2021/07/31 04:53:59;;;;;;;14.88;8.55;;;;;;;;;;4940194;29;20632;-92
2021/07/31 04:56:25;;;;;;;13.32;8.80;;;19.50;99.90;;;;;;4939537;29;20190;-91
2021/07/31 04:58:51;;;;;;;16.65;9.20;;;20.00;99.90;;;;;;4924261;29;20184;-91
2021/07/31 05:01:17;;;;;;;11.73;8.38;;;;;;;;;;4940453;29;20203;-96
2021/07/31 05:03:45;;;;;;;9.85;8.38;;;19.90;99.90;;;;;;4928611;28;20240;-95
2021/07/31 05:06:10;;;;;;;14.52;8.48;;;19.70;99.90;;;;;;4958677;28;20163;-92
2021/07/31 05:08:36;;;;;;;15.13;8.07;;;20.10;99.90;;;;;;4958273;28;20213;-91
2021/07/31 05:11:09;;;;;;;14.07;8.82;;;20.40;99.90;;;;;;4957923;28;20296;-92
2021/07/31 05:13:37;;;;;;;15.80;8.70;;;20.30;99.90;;;;;;4959223;28;20194;-91
2021/07/31 05:16:03;;;;;;;12.63;8.43;;;20.60;99.90;;;;;;4961353;28;20178;-91
2021/07/31 05:18:29;;;;;;;14.30;8.95;;;20.60;99.90;;;;;;4967304;28;20210;-91
2021/07/31 05:20:57;;;;;;;12.98;8.52;;;;;;;;;;4961932;28;20186;-90
2021/07/31 05:23:23;;;;;;;13.50;8.02;;;20.90;99.90;;;;;;4975086;28;20171;-92
2021/07/31 05:25:49;;;;;;;15.35;8.30;;;;;;;;;;4956731;28;20182;-90
2021/07/31 05:28:15;;;;;;;16.85;8.07;;;21.10;99.90;;;;;;4956900;28;20183;-90
2021/07/31 05:30:42;;;;;;;11.00;8.02;;;21.20;99.90;;;;;;4955524;28;20546;-91
2021/07/31 05:33:08;;;;;;;12.57;7.80;;;;;;;;;;4956231;28;20245;-89
2021/07/31 05:35:34;;;;;;;17.30;8.23;;;21.20;99.90;;;;;;4973144;28;20182;-91
2021/07/31 05:38:03;;;;;;;12.50;8.00;;;20.20;99.90;;;;;;4947505;28;20170;-94
2021/07/31 05:40:29;;;;;;;11.63;8.20;;;21.90;99.90;;;;;;4945804;28;20280;-89
2021/07/31 05:42:55;;;;;;;17.95;8.57;;;;;;;;;;4948665;28;20636;-90
2021/07/31 05:45:21;;;;;;;12.60;9.20;;;21.80;99.90;;;;;;4948420;28;20182;-90
2021/07/31 05:47:47;;;;;;;11.93;8.30;;;21.90;99.90;;;;;;4948072;28;20175;-90
2021/07/31 05:50:13;;;;;;;13.68;8.10;;;22.10;99.90;;;;;;4945657;28;20273;-89
2021/07/31 05:52:41;;;;;;;18.75;8.35;;;22.60;99.90;;;;;;4974085;28;20209;-90
2021/07/31 05:55:15;;;;;;;12.00;7.60;;;22.50;99.90;;;;;;4942841;28;20182;-90
2021/07/31 05:57:40;;;;;;;13.27;8.38;;;22.30;99.90;;;;;;4941218;28;20182;-90
2021/07/31 06:00:07;;;;;;;11.07;7.32;;;22.50;99.90;;;;;;4957454;28;20709;-89
2021/07/31 06:02:33;;;;;;;11.05;8.00;;;22.80;99.90;;;;;;4956680;28;20178;-88
2021/07/31 06:05:01;;;;;;;14.10;7.97;;;22.70;99.90;;;;;;4973397;28;20261;-89
2021/07/31 06:07:29;;;;;;;10.63;7.63;;;22.80;99.90;;;;;;4973323;28;20711;-91
2021/07/31 06:09:55;;;;;;;18.23;7.88;;;;;;;;;;4973617;28;20210;-88
2021/07/31 06:12:22;;;;;;;13.38;7.90;;;;;;;;;;4956270;28;20609;-90
2021/07/31 06:14:48;;;;;;;11.65;8.13;;;23.10;99.90;;;;;;4956639;28;20183;-89
2021/07/31 06:17:14;;;;;;;12.55;7.47;;;;;;;;;;4956419;28;20182;-89
2021/07/31 06:19:41;;;;;;;14.55;9.00;;;23.50;99.90;;;;;;4956801;28;20189;-90
2021/07/31 06:22:12;;;;;;;12.98;7.95;;;23.60;99.90;;;;;;4956316;28;20205;-89
2021/07/31 06:24:38;;;;;;;11.00;7.68;;;;;;;;;;4956337;28;20206;-89
2021/07/31 06:27:04;;;;;;;11.43;7.45;;;23.80;99.90;;;;;;4956942;28;20185;-88
2021/07/31 06:29:30;;;;;;;11.57;7.05;;;;;;;;;;4940110;28;20190;-88
2021/07/31 06:31:56;;;;;;;10.57;7.35;;;24.10;99.90;;;;;;4940236;28;20245;-88
2021/07/31 06:34:22;;;;;;;15.30;7.47;;;23.70;99.90;;;;;;4955728;28;20214;-88
2021/07/31 06:36:48;;;;;;;12.68;7.13;;;24.50;99.90;;;;;;4973337;28;20601;-88
2021/07/31 06:39:14;;;;;;;14.98;6.82;;;24.40;99.90;;;;;;4973451;28;20178;-88
2021/07/31 06:41:39;;;;;;;11.57;6.93;;;24.60;99.90;;;;;;4973733;28;20270;-89
2021/07/31 06:44:05;;;;;;;13.57;7.00;;;24.70;99.90;;;;;;4950893;29;20526;-88
2021/07/31 06:46:31;;;;;;;11.10;6.50;;;;;;;;;;4937107;29;20629;-89
2021/07/31 06:48:59;;;;;;;9.18;6.47;;;;;;;;;;4936995;29;20194;-90
2021/07/31 06:51:25;;;;;;;12.00;6.80;;;;;;;;;;4953827;29;20202;-88
2021/07/31 06:53:53;;;;;;;11.98;6.28;;;;;;;;;;4921685;29;20207;-89
2021/07/31 06:56:19;;;;;;;7.05;5.65;;;;;;;;;;4953895;29;20183;-88
2021/07/31 06:58:45;;;;;;;8.90;6.18;;;25.20;99.90;;;;;;4954551;29;20179;-89
2021/07/31 07:01:11;;;;;;;10.23;6.60;;;;;;;;;;4954018;29;20242;-88
2021/07/31 07:03:37;;;;;;;12.75;6.18;;;25.30;99.90;;;;;;4933793;29;20274;-89
2021/07/31 07:06:04;;;;;;;10.75;6.63;;;25.30;99.90;;;;;;4944267;29;20191;-90
2021/07/31 07:08:30;;;;;;;9.93;6.25;;;25.40;99.90;;;;;;4914443;29;20177;-88
2021/07/31 07:10:56;;;;;;;13.80;6.57;;;25.50;99.90;;;;;;4914336;29;20670;-88
2021/07/31 07:13:22;;;;;;;8.85;5.90;;;25.50;99.90;;;;;;4915296;29;20180;-88
2021/07/31 07:15:49;;;;;;;10.00;6.75;;;;;;;;;;4914655;29;20181;-88
2021/07/31 07:18:15;;;;;;;11.07;6.35;;;;;;;;;;4914820;29;20181;-87
2021/07/31 07:20:41;;;;;;;10.65;7.38;;;;;;;;;;4918106;29;20189;-94
2021/07/31 07:23:07;;;;;;;13.57;7.03;;;;;;;;;;4919045;29;20192;-89
2021/07/31 07:25:36;;;;;;;18.20;6.15;;;;;;;;;;4921073;29;20181;-90
2021/07/31 07:28:02;;;;;;;12.70;6.68;;;;;;;;;;4920969;29;20212;-91
2021/07/31 07:30:31;;;;;;;15.80;6.55;;;26.60;99.90;;;;;;4921348;29;20208;-91
2021/07/31 07:33:38;;;;;;;;;;;;;;;;;;;;;
2021/07/31 07:36:42;;;;;;;12.95;6.22;;;26.40;99.90;;;;;;4911774;29;20625;-93
2021/07/31 07:39:11;;;;;;;9.40;5.80;;;26.50;99.90;;;;;;4899605;29;20196;-92
2021/07/31 07:43:07;;;;;;;;;;;;;;;;;;;;;
2021/07/31 07:45:39;;;;;;;11.93;6.35;;;27.40;99.90;;;;;;4917811;29;20287;-94
2021/07/31 07:48:40;;;;;;;;;;;;;;;;;;;;;
2021/07/31 07:51:34;;;;;;;7.35;5.85;;;23.80;99.90;;;;;;4921761;29;20222;-94
2021/07/31 08:00:39;;;;;;;10.68;5.90;;;;;;;;;;4867423;29;20191;-93
2021/07/31 08:03:55;;;;;;;;;;;;;;;;;;;;;
2021/07/31 08:06:41;;;;;;;10.65;7.05;;;26.80;99.90;;;;;;4915866;29;20208;-92
2021/07/31 08:09:29;;;;;;;;;;;;;;;;;;;;;
2021/07/31 08:12:19;;;;;;;8.35;6.18;;;26.50;99.90;;;;;;4925201;29;20295;-95
2021/07/31 08:15:00;;;;;;;7.43;6.07;;;26.50;99.90;;;;;;4922895;29;20192;-95
2021/07/31 08:18:11;;;;;;;;;;;;;;;;;;;;;
2021/07/31 08:20:47;;;;;;;12.70;6.10;;;27.10;99.90;;;;;;4929097;29;20280;-93
2021/07/31 08:23:34;;;;;;;10.27;6.10;;;26.40;99.90;;;;;;4909461;29;20622;-92
2021/07/31 08:26:31;;;;;;;11.77;5.63;;;26.40;99.90;;;;;;4926649;29;20194;-93
2021/07/31 08:29:17;;;;;;;13.25;6.10;;;26.80;99.90;;;;;;4956845;29;20217;-92
2021/07/31 08:31:43;;;;;;;10.30;6.88;;;;;;;;;;4941527;29;20210;-93
2021/07/31 08:34:17;;;;;;;12.23;6.65;;;26.80;99.90;;;;;;4955786;29;20711;-93
2021/07/31 08:36:43;;;;;;;12.70;5.53;;;;;;;;;;4955303;29;20187;-89
2021/07/31 08:39:09;;;;;;;12.88;6.38;;;;;;;;;;4955566;29;20186;-90
2021/07/31 08:41:35;;;;;;;11.15;6.30;;;27.00;99.90;;;;;;4954610;29;20199;-89
2021/07/31 08:44:04;;;;;;;10.95;6.13;;;27.20;99.90;;;;;;4953434;29;20179;-90
2021/07/31 08:46:30;;;;;;;11.90;6.15;;;;;;;;;;4953156;28;20210;-90
2021/07/31 08:48:57;;;;;;;8.82;5.57;;;27.70;99.90;;;;;;4955161;29;20204;-90
2021/07/31 08:51:24;;;;;;;11.82;6.57;;;27.70;99.90;;;;;;4955114;29;20277;-92
2021/07/31 08:53:51;;;;;;;16.02;6.20;;;;;;;;;;4954945;29;20188;-91
2021/07/31 08:56:20;;;;;;;12.30;6.90;;;;;;;;;;4954732;29;20186;-90
2021/07/31 08:58:46;;;;;;;9.82;6.63;;;;;;;;;;4956215;29;20183;-89
2021/07/31 09:01:12;;;;;;;10.07;6.05;;;;;;;;;;4956373;29;20182;-89
2021/07/31 09:03:45;;;;;;;10.45;5.68;;;28.50;99.90;;;;;;4939809;28;20241;-91
2021/07/31 09:06:31;;;;;;;11.75;5.32;;;28.70;99.90;;;;;;4949332;28;20653;-91
2021/07/31 09:12:13;;;;;;;11.43;6.65;;;29.10;99.90;;;;;;4859826;29;20355;-92
2021/07/31 09:15:11;;;;;;;7.45;5.40;;;29.20;99.90;;;;;;4948674;28;20222;-93
2021/07/31 09:17:39;;;;;;;8.13;5.30;;;;;;;;;;4957657;28;20183;-92
2021/07/31 09:21:00;;;;;;;;;;;;;;;;;;;;;
2021/07/31 09:23:46;;;;;;;10.25;5.22;;;28.90;99.20;;;;;;4950722;28;20200;-91
2021/07/31 09:26:36;;;;;;;6.43;4.78;;;30.00;98.60;;;;;;4942606;28;20186;-91
2021/07/31 09:29:09;;;;;;;10.82;5.07;;;29.30;98.40;;;;;;4957719;28;20630;-90
2021/07/31 09:31:49;;;;;;;7.30;5.15;;;30.20;97.50;;;;;;4957217;28;20202;-90
2021/07/31 09:34:32;;;;;;;9.77;4.97;;;30.10;96.40;;;;;;4957480;28;20194;-90
2021/07/31 09:37:14;;;;;;;5.68;5.07;;;30.20;96.60;;;;;;4974776;28;20560;-91
2021/07/31 09:40:01;;;;;;;11.63;5.00;;;30.60;96.40;;;;;;4963810;28;20221;-88
2021/07/31 09:42:27;;;;;;;7.43;5.07;;;;;;;;;;4957480;29;20178;-90
2021/07/31 09:44:54;;;;;;;7.03;4.95;;;;;;;;;;4945873;28;20174;-91
2021/07/31 09:47:20;;;;;;;7.05;4.55;;;;;;;;;;4941385;28;20190;-89
2021/07/31 09:49:53;;;;;;;7.68;4.55;;;29.40;95.60;;;;;;4941013;28;20193;-92
2021/07/31 09:52:21;;;;;;;6.95;5.03;;;29.30;94.70;;;;;;4974097;28;20258;-88
2021/07/31 09:54:47;;;;;;;7.13;4.72;;;;;;;;;;4956690;28;20662;-88
2021/07/31 09:57:13;;;;;;;7.07;4.80;;;;;;;;;;4928894;29;20193;-90
2021/07/31 09:59:47;;;;;;;7.75;4.75;;;29.70;94.30;;;;;;4935946;29;20187;-88
2021/07/31 10:02:16;;;;;;;7.32;4.45;;;29.90;93.20;;;;;;4937364;29;20206;-89
2021/07/31 10:04:45;;;;;;;7.70;4.75;;;29.90;93.70;;;;;;4933026;29;20776;-91
2021/07/31 10:07:13;;;;;;;7.72;4.68;;;29.80;92.70;;;;;;4918860;29;20738;-88
2021/07/31 10:09:45;;;;;;;5.90;4.63;;;29.80;92.60;;;;;;4935446;29;20187;-89
2021/07/31 10:12:14;;;;;;;7.88;4.88;;;;;;;;;;4934341;29;20203;-89
2021/07/31 10:14:44;;;;;;;6.63;4.57;;;29.80;92.40;;;;;;4934598;29;20617;-91
2021/07/31 10:17:11;;;;;;;7.00;4.40;;;30.00;92.30;;;;;;4934536;29;20211;-89
2021/07/31 10:19:42;;;;;;;11.07;5.10;;;29.80;91.00;;;;;;4934612;29;20274;-89
2021/07/31 10:22:09;;;;;;;5.35;4.05;;;29.80;91.00;;;;;;4934580;29;20210;-89
2021/07/31 10:24:53;;;;;;;7.90;4.60;;;29.70;91.50;;;;;;4940907;29;20187;-91
2021/07/31 10:27:21;;;;;;;9.13;4.47;;;;;;;;;;4969167;28;20198;-91
2021/07/31 10:30:23;;;;;;;5.95;4.30;;;29.70;89.20;;;;;;4967947;28;20172;-93
2021/07/31 10:32:49;;;;;;;4.82;4.05;;;;;;;;;;4963629;28;20191;-90
2021/07/31 10:35:36;;;;;;;6.68;4.07;;;29.60;91.10;;;;;;4966315;29;20625;-91
2021/07/31 10:38:07;;;;;;;9.38;4.50;;;29.60;90.70;;;;;;4926148;29;20185;-90
2021/07/31 10:40:41;;;;;;;7.05;4.53;;;29.70;91.00;;;;;;4916141;29;20195;-90
2021/07/31 10:43:13;;;;;;;6.78;4.63;;;29.90;92.80;;;;;;4927100;29;20218;-91
2021/07/31 10:45:39;;;;;;;4.88;3.80;;;;;;;;;;4946894;29;20175;-91
2021/07/31 10:48:34;;;;;;;5.65;4.55;;;29.40;89.30;;;;;;4945045;29;20179;-91
2021/07/31 10:51:00;;;;;;;4.57;3.90;;;;;;;;;;4937292;29;20223;-91
2021/07/31 10:53:53;;;;;;;6.30;4.97;;;29.40;88.80;;;;;;4942729;29;20210;-91
2021/07/31 10:56:19;;;;;;;5.70;4.30;;;;;;;;;;4942923;29;20191;-90
2021/07/31 10:59:14;;;;;;;11.77;4.47;;;29.10;87.30;;;;;;4944767;29;20179;-91
2021/07/31 11:01:40;;;;;;;8.25;5.22;;;29.10;88.90;;;;;;4945069;29;20186;-91
2021/07/31 11:04:38;;;;;;;8.23;5.47;;;28.90;91.60;;;;;;4956253;28;20257;-93
2021/07/31 11:07:10;;;;;;;7.75;4.28;;;26.50;89.80;;;;;;4932646;28;20183;-90
2021/07/31 11:09:41;;;;;;;9.20;5.38;;;28.60;94.20;;;;;;4947057;28;20211;-91
2021/07/31 11:12:43;;;;;;;21.08;7.20;;;28.60;97.70;;;;;;4950204;28;20288;-90
2021/07/31 11:15:09;;;;;;;10.85;6.97;;;28.30;96.20;;;;;;4967148;28;20182;-88
2021/07/31 11:17:41;;;;;;;14.90;7.30;;;28.20;98.90;;;;;;4969578;28;20622;-89
2021/07/31 11:20:24;;;;;;;18.58;7.38;;;28.10;99.90;;;;;;4952924;28;20174;-90
2021/07/31 11:22:51;;;;;;;11.25;6.70;;;;;;;;;;4944473;28;20194;-92
2021/07/31 11:25:19;;;;;;;14.02;6.65;;;27.80;99.90;;;;;;4952074;28;20181;-89
2021/07/31 11:28:10;;;;;;;11.07;7.35;;;27.80;99.90;;;;;;4949076;28;20235;-90
2021/07/31 11:30:38;;;;;;;11.52;4.80;;;27.60;99.90;;;;;;4952878;28;20553;-90
2021/07/31 11:33:24;;;;;;;9.40;4.72;;;27.30;98.00;;;;;;4959409;28;20186;-90
2021/07/31 11:36:00;;;;;;;9.93;4.78;;;27.10;95.60;;;;;;4950555;28;20202;-90
2021/07/31 11:38:26;;;;;;;12.65;5.00;;;;;;;;;;4949175;28;20220;-90
2021/07/31 11:40:57;;;;;;;8.30;5.40;;;26.70;98.10;;;;;;4950494;28;20210;-91
2021/07/31 11:43:26;;;;;;;10.55;5.53;;;;;;;;;;4944093;28;20182;-91
2021/07/31 11:45:57;;;;;;;10.43;5.72;;;26.30;99.90;;;;;;4949938;28;20187;-89
2021/07/31 11:48:23;;;;;;;12.68;5.22;;;;;;;;;;4952279;28;20194;-89
2021/07/31 11:51:05;;;;;;;12.32;5.68;;;26.30;99.90;;;;;;4930685;28;20215;-88
2021/07/31 11:53:55;;;;;;;9.98;4.90;;;26.10;99.90;;;;;;4945781;28;20182;-93
2021/07/31 11:56:43;;;;;;;10.48;5.18;;;26.10;99.90;;;;;;4947639;28;20206;-90
2021/07/31 11:59:09;;;;;;;5.80;4.43;;;25.90;99.90;;;;;;4950396;28;20693;-90
2021/07/31 12:01:37;;;;;;;7.57;5.20;;;25.90;99.90;;;;;;4959230;28;20262;-93
2021/07/31 12:04:04;;;;;;;7.75;5.20;;;25.90;99.90;;;;;;4962312;28;20240;-90
2021/07/31 12:06:31;;;;;;;8.43;4.90;;;25.70;99.90;;;;;;4941814;29;20275;-90
2021/07/31 12:09:05;;;;;;;12.20;4.70;;;25.60;99.90;;;;;;4928470;29;20183;-92
2021/07/31 12:11:35;;;;;;;7.90;4.65;;;25.60;99.90;;;;;;4955100;28;20211;-90
2021/07/31 12:14:27;;;;;;;12.15;4.30;;;25.60;99.90;;;;;;4941693;29;20234;-91
2021/07/31 12:16:53;;;;;;;10.73;5.28;;;;;;;;;;4943015;28;20181;-92
2021/07/31 12:19:20;;;;;;;9.10;5.40;;;25.20;99.90;;;;;;4947133;28;20191;-92
2021/07/31 12:22:05;;;;;;;13.77;6.07;;;24.90;99.90;;;;;;4932695;28;20237;-91
2021/07/31 12:24:31;;;;;;;11.88;6.25;;;;;;;;;;4945161;28;20274;-89
2021/07/31 12:26:57;;;;;;;13.63;6.55;;;24.90;99.90;;;;;;4946919;28;20193;-91
2021/07/31 12:29:44;;;;;;;16.25;6.95;;;24.40;99.90;;;;;;4953327;28;20174;-91
2021/07/31 12:32:27;;;;;;;10.68;6.90;;;25.00;99.90;;;;;;4948658;28;20207;-91
2021/07/31 12:34:58;;;;;;;12.05;7.13;;;24.50;99.90;;;;;;4948974;28;20581;-91
2021/07/31 12:37:24;;;;;;;10.25;6.75;;;;;;;;;;4944465;29;20175;-90
2021/07/31 12:39:51;;;;;;;11.30;7.20;;;24.30;99.90;;;;;;4964317;28;20217;-87
2021/07/31 12:42:17;;;;;;;12.50;7.25;;;;;;;;;;4925536;29;20191;-90
2021/07/31 12:44:43;;;;;;;11.73;6.80;;;24.30;99.90;;;;;;4950923;28;20187;-91
2021/07/31 12:47:19;;;;;;;;;;;;;;;;;;;;;
2021/07/31 12:49:48;;;;;;;13.65;7.22;;;;;;;;;;4966813;28;20183;-89
2021/07/31 12:52:14;;;;;;;12.02;6.88;;;24.40;99.90;;;;;;4957059;28;20199;-88
2021/07/31 12:54:40;;;;;;;11.05;7.00;;;24.50;99.90;;;;;;4941110;28;20201;-88
2021/07/31 12:57:06;;;;;;;11.82;7.07;;;;;;;;;;4950251;28;20202;-89
2021/07/31 12:59:32;;;;;;;12.05;7.28;;;;;;;;;;4942688;28;20194;-89
2021/07/31 13:01:59;;;;;;;20.73;8.00;;;23.70;99.90;;;;;;4963464;28;20182;-90
2021/07/31 13:04:25;;;;;;;14.40;8.73;;;;;;;;;;4945530;29;20251;-89
2021/07/31 13:06:52;;;;;;;14.18;7.53;;;;;;;;;;4944405;29;20184;-89
2021/07/31 13:09:18;;;;;;;11.73;7.43;;;23.70;99.90;;;;;;4947349;29;20199;-90
2021/07/31 13:11:44;;;;;;;13.25;7.53;;;;;;;;;;4943704;29;20195;-90
2021/07/31 13:14:14;;;;;;;13.20;6.82;;;23.90;99.90;;;;;;4943193;29;20560;-92
2021/07/31 13:16:40;;;;;;;16.20;7.63;;;;;;;;;;4927310;29;20175;-88
2021/07/31 13:19:14;;;;;;;13.07;7.40;;;23.80;99.90;;;;;;4934257;29;20183;-93
2021/07/31 13:21:40;;;;;;;11.50;7.32;;;;;;;;;;4924998;29;20192;-90
2021/07/31 13:24:06;;;;;;;14.25;7.55;;;23.80;99.90;;;;;;4922932;29;20196;-92
2021/07/31 13:26:32;;;;;;;10.20;7.38;;;24.00;99.90;;;;;;4948380;29;20175;-91
2021/07/31 13:28:58;;;;;;;13.63;6.45;;;;;;;;;;4937560;29;20186;-89
2021/07/31 13:31:24;;;;;;;10.77;6.43;;;23.70;99.90;;;;;;4948960;29;20229;-89
2021/07/31 13:33:51;;;;;;;16.90;7.43;;;;;;;;;;4926651;29;20192;-92
2021/07/31 13:36:18;;;;;;;8.63;6.80;;;22.30;99.90;;;;;;4926314;29;20266;-90
2021/07/31 13:38:51;;;;;;;10.95;6.97;;;;;;;;;;4928985;29;20213;-89
2021/07/31 13:41:18;;;;;;;11.23;6.35;;;23.90;99.90;;;;;;4924023;29;20271;-89